Startpagina
METAR-TAF:

METAR-TAF

Vliegvelden :

Cannes, Frankrijk

breedte: 43-33N, lengte: 006-57E, hoogte: 3 m

Actueel weer

Dit bericht is 31 minuten geleden gemaakt, om 12:00 UTC
Wind 2 kt uit variabele richting
Temperatuur 13°C
Vochtigheid 72%
Druk 1011 hPa
Zicht 10 km of meer
Geheel bewolkt op 3800 ft

METAR: LFMD 211200Z AUTO VRB02KT 9999 OVC038 13/08 Q1011 TEMPO 4000 RA BKN014

Tijdstip: 13:31 (12:31 UTC)

Verwachting

Dit bericht is 4 uur en het 31 minuten geleden gemaakt, om 08:00 UTC
Verwachting geldig van 21 om 09 UTC tot 22 om 09 UTC
Wind 3 kt uit variabele richting
Zicht 10 km of meer
Gebroken wolken op 3000 ft
Tijdelijke
van 21 om 09 UTC tot 21 om 13 UTC
Zicht: 4000 m
Gebroken wolken op 1400 ft
regen
Tijdelijke
van 21 om 12 UTC tot 21 om 17 UTC
Wind 10 kt uit het oosten

TAF: LFMD 210800Z 2109/2209 VRB03KT 9999 BKN030 TEMPO 2109/2113 4000 RA BKN014 TEMPO 2112/2117 10010KT

Waarnemingen en weersverwachtingen van meer dan 4000 vliegvelden (METAR en TAF).

De beschikbare stations zijn de gele en rode punten op de kaart.

Ga met uw muis naar het station om de naam te zien.

Klik dan om waarnemingen en weersverwachtingen te zien.

kaart wijzigen: klik op de groene knoppen met een zwart kruis om in te zoomen, op de groene knop met een streepje om uit te zoomen of op de groene pijlen voor aangrenzende kaarten.


METAR-TAF: